Time,TemperatureF,DewpointF,PressureIn,WindDirection,WindDirectionDegrees,WindSpeedMPH,WindSpeedGustMPH,Humidity,HourlyPrecipIn,Conditions,Clouds,dailyrainin,SoftwareType,DateUTC
2013-05-22 00:00:00,71.1,69.3,29.82,East,90,0.0,1.0,94,0.00,,---,0.00,VWS V13.01,2013-05-22 04:00:00,
2013-05-22 00:01:00,71.2,69.4,29.82,East,90,0.0,1.0,94,0.00,,---,0.01,VWS V13.01,2013-05-22 04:01:00,
2013-05-22 00:02:00,71.2,69.4,29.82,East,90,0.0,1.0,94,0.00,,---,0.01,VWS V13.01,2013-05-22 04:02:00,
2013-05-22 00:07:00,71.1,69.3,29.82,East,90,0.0,0.0,94,0.00,,---,0.00,VWS V13.01,2013-05-22 04:07:00,
2013-05-22 00:10:00,70.9,69.1,29.82,East,92,0.0,0.0,94,0.00,,---,0.00,VWS V13.01,2013-05-22 04:10:00,
2013-05-22 00:12:00,71.0,69.2,29.82,East,90,0.0,0.0,94,0.00,,---,0.00,VWS V13.01,2013-05-22 04:12:00,
2013-05-22 00:17:00,70.9,69.1,29.82,East,98,0.0,0.0,94,0.00,,---,0.00,VWS V13.01,2013-05-22 04:17:00,
2013-05-22 00:20:00,70.8,69.0,29.81,ESE,106,0.0,1.0,94,0.00,,---,0.00,VWS V13.01,2013-05-22 04:20:00,
2013-05-22 00:22:00,70.8,69.0,29.81,ESE,106,0.0,0.0,94,0.00,,---,0.00,VWS V13.01,2013-05-22 04:22:00,
2013-05-22 00:27:00,70.7,68.9,29.81,East,98,0.0,0.0,94,0.00,,---,0.00,VWS V13.01,2013-05-22 04:27:00,
2013-05-22 00:30:00,70.6,68.8,29.81,East,96,0.0,1.0,94,0.00,,---,0.00,VWS V13.01,2013-05-22 04:30:00,
2013-05-22 00:32:00,70.7,68.9,29.81,East,96,0.0,1.0,94,0.00,,---,0.00,VWS V13.01,2013-05-22 04:32:00,
2013-05-22 00:37:00,70.6,68.8,29.81,East,96,0.0,0.0,94,0.00,,---,0.00,VWS V13.01,2013-05-22 04:37:00,
2013-05-22 00:40:00,70.5,68.7,29.81,East,94,0.0,0.0,94,0.00,,---,0.00,VWS V13.01,2013-05-22 04:40:00,
2013-05-22 00:42:00,70.6,68.8,29.81,East,96,0.0,0.0,94,0.00,,---,0.00,VWS V13.01,2013-05-22 04:42:00,
2013-05-22 00:47:00,70.5,68.7,29.81,East,94,0.0,0.0,94,0.00,,---,0.00,VWS V13.01,2013-05-22 04:47:00,
2013-05-22 00:50:00,70.4,68.9,29.81,East,93,0.0,0.0,95,0.00,,---,0.00,VWS V13.01,2013-05-22 04:50:00,
2013-05-22 00:52:00,70.4,68.6,29.81,East,92,0.0,0.0,94,0.00,,---,0.00,VWS V13.01,2013-05-22 04:52:00,
2013-05-22 00:57:00,70.4,68.9,29.81,East,93,0.0,0.0,95,0.00,,---,0.00,VWS V13.01,2013-05-22 04:57:00,
2013-05-22 01:00:00,70.3,68.8,29.81,East,93,0.0,0.0,95,0.00,,---,0.00,VWS V13.01,2013-05-22 05:00:00,
2013-05-22 01:02:00,70.3,68.8,29.81,East,93,0.0,0.0,95,0.00,,---,0.00,VWS V13.01,2013-05-22 05:02:00,
2013-05-22 01:07:00,70.3,68.8,29.81,East,93,0.0,0.0,95,0.00,,---,0.00,VWS V13.01,2013-05-22 05:07:00,
2013-05-22 01:10:00,70.2,68.7,29.81,East,92,0.0,0.0,95,0.00,,---,0.00,VWS V13.01,2013-05-22 05:10:00,
2013-05-22 01:12:00,70.2,68.7,29.81,East,93,0.0,0.0,95,0.00,,---,0.00,VWS V13.01,2013-05-22 05:12:00,
2013-05-22 01:17:00,70.2,68.7,29.81,East,93,0.0,1.0,95,0.00,,---,0.00,VWS V13.01,2013-05-22 05:17:00,
2013-05-22 01:20:00,70.2,68.7,29.80,East,93,0.0,1.0,95,0.00,,---,0.00,VWS V13.01,2013-05-22 05:20:00,
2013-05-22 01:22:00,70.2,68.7,29.80,East,93,0.0,1.0,95,0.00,,---,0.00,VWS V13.01,2013-05-22 05:22:00,
2013-05-22 01:27:00,70.1,68.6,29.80,East,98,0.0,0.0,95,0.00,,---,0.00,VWS V13.01,2013-05-22 05:27:00,
2013-05-22 01:30:00,70.1,68.6,29.80,East,98,0.0,0.0,95,0.00,,---,0.00,VWS V13.01,2013-05-22 05:30:00,
2013-05-22 01:32:00,70.1,68.6,29.80,East,98,0.0,0.0,95,0.00,,---,0.00,VWS V13.01,2013-05-22 05:32:00,
2013-05-22 01:37:00,70.1,68.6,29.80,East,98,0.0,0.0,95,0.00,,---,0.00,VWS V13.01,2013-05-22 05:37:00,
2013-05-22 01:40:00,69.9,68.4,29.79,East,98,0.0,0.0,95,0.00,,---,0.00,VWS V13.01,2013-05-22 05:40:00,
2013-05-22 01:42:00,70.0,68.5,29.80,East,98,0.0,0.0,95,0.00,,---,0.00,VWS V13.01,2013-05-22 05:42:00,
2013-05-22 01:47:00,69.9,68.4,29.79,East,98,0.0,0.0,95,0.00,,---,0.00,VWS V13.01,2013-05-22 05:47:00,
2013-05-22 01:50:00,69.9,68.4,29.79,East,98,0.0,1.0,95,0.00,,---,0.00,VWS V13.01,2013-05-22 05:50:00,
2013-05-22 01:52:00,69.9,68.4,29.79,East,98,0.0,1.0,95,0.00,,---,0.00,VWS V13.01,2013-05-22 05:52:00,
2013-05-22 01:57:00,69.9,68.4,29.79,East,98,0.0,0.0,95,0.00,,---,0.00,VWS V13.01,2013-05-22 05:57:00,
2013-05-22 02:00:00,69.9,68.4,29.79,East,101,0.0,4.0,95,0.00,,---,0.00,VWS V13.01,2013-05-22 06:00:00,
2013-05-22 02:02:00,69.9,68.4,29.79,East,98,0.0,1.0,95,0.00,,---,0.00,VWS V13.01,2013-05-22 06:02:00,
2013-05-22 02:07:00,69.9,68.4,29.79,East,101,0.0,1.0,95,0.00,,---,0.00,VWS V13.01,2013-05-22 06:07:00,
2013-05-22 02:10:00,69.8,68.3,29.79,SE,126,0.0,3.0,95,0.00,,---,0.00,VWS V13.01,2013-05-22 06:10:00,
2013-05-22 02:12:00,69.9,68.4,29.78,SE,131,0.0,3.0,95,0.00,,---,0.00,VWS V13.01,2013-05-22 06:12:00,
2013-05-22 02:17:00,69.8,68.3,29.79,SE,126,0.0,0.0,95,0.00,,---,0.00,VWS V13.01,2013-05-22 06:17:00,
2013-05-22 02:20:00,69.7,68.2,29.79,SE,126,0.0,0.0,95,0.00,,---,0.00,VWS V13.01,2013-05-22 06:20:00,
2013-05-22 02:22:00,69.7,68.2,29.79,SE,126,0.0,0.0,95,0.00,,---,0.00,VWS V13.01,2013-05-22 06:22:00,
2013-05-22 02:27:00,69.7,68.2,29.79,SE,126,0.0,0.0,95,0.00,,---,0.00,VWS V13.01,2013-05-22 06:27:00,
2013-05-22 02:30:00,69.5,68.0,29.78,SE,126,0.0,0.0,95,0.00,,---,0.00,VWS V13.01,2013-05-22 06:30:00,
2013-05-22 02:32:00,69.6,68.1,29.78,SE,126,0.0,0.0,95,0.00,,---,0.00,VWS V13.01,2013-05-22 06:32:00,
2013-05-22 02:37:00,69.5,68.0,29.78,SE,126,0.0,0.0,95,0.00,,---,0.00,VWS V13.01,2013-05-22 06:37:00,
2013-05-22 02:40:00,69.4,67.9,29.79,SE,126,0.0,0.0,95,0.00,,---,0.00,VWS V13.01,2013-05-22 06:40:00,
2013-05-22 02:42:00,69.4,67.9,29.78,SE,126,0.0,0.0,95,0.00,,---,0.00,VWS V13.01,2013-05-22 06:42:00,
2013-05-22 02:47:00,69.4,67.9,29.79,SE,126,0.0,0.0,95,0.00,,---,0.00,VWS V13.01,2013-05-22 06:47:00,
2013-05-22 02:50:00,69.3,67.8,29.78,SE,126,0.0,1.0,95,0.00,,---,0.00,VWS V13.01,2013-05-22 06:50:00,
2013-05-22 02:52:00,69.3,67.8,29.78,SE,126,0.0,0.0,95,0.00,,---,0.00,VWS V13.01,2013-05-22 06:52:00,
2013-05-22 02:57:00,69.2,67.7,29.78,SE,126,0.0,0.0,95,0.00,,---,0.00,VWS V13.01,2013-05-22 06:57:00,
2013-05-22 03:00:00,69.1,67.6,29.78,SE,126,0.0,0.0,95,0.00,,---,0.00,VWS V13.01,2013-05-22 07:00:00,
2013-05-22 03:02:00,69.1,67.6,29.78,SE,126,0.0,0.0,95,0.00,,---,0.00,VWS V13.01,2013-05-22 07:02:00,
2013-05-22 03:07:00,69.1,67.6,29.78,SE,126,0.0,0.0,95,0.00,,---,0.00,VWS V13.01,2013-05-22 07:07:00,
2013-05-22 03:10:00,69.0,67.5,29.78,SE,126,0.0,0.0,95,0.00,,---,0.00,VWS V13.01,2013-05-22 07:10:00,
2013-05-22 03:12:00,69.0,67.5,29.78,SE,126,0.0,0.0,95,0.00,,---,0.00,VWS V13.01,2013-05-22 07:12:00,
2013-05-22 03:17:00,68.9,67.4,29.78,SE,126,0.0,0.0,95,0.00,,---,0.00,VWS V13.01,2013-05-22 07:17:00,
2013-05-22 03:20:00,68.8,67.3,29.78,SE,126,0.0,0.0,95,0.00,,---,0.00,VWS V13.01,2013-05-22 07:20:00,
2013-05-22 03:22:00,68.9,67.4,29.78,SE,126,0.0,0.0,95,0.00,,---,0.00,VWS V13.01,2013-05-22 07:22:00,
2013-05-22 03:27:00,68.9,67.4,29.78,SE,126,0.0,0.0,95,0.00,,---,0.00,VWS V13.01,2013-05-22 07:27:00,
2013-05-22 03:30:00,68.8,67.3,29.78,SE,126,0.0,0.0,95,0.00,,---,0.00,VWS V13.01,2013-05-22 07:30:00,
2013-05-22 03:32:00,68.8,67.3,29.78,SE,126,0.0,0.0,95,0.00,,---,0.00,VWS V13.01,2013-05-22 07:32:00,
2013-05-22 03:37:00,68.8,67.3,29.78,SE,126,0.0,0.0,95,0.00,,---,0.00,VWS V13.01,2013-05-22 07:37:00,
2013-05-22 03:40:00,68.8,67.3,29.77,SE,126,0.0,0.0,95,0.00,,---,0.00,VWS V13.01,2013-05-22 07:40:00,
2013-05-22 03:42:00,68.8,67.3,29.78,SE,126,0.0,0.0,95,0.00,,---,0.00,VWS V13.01,2013-05-22 07:42:00,
2013-05-22 03:47:00,68.8,67.3,29.77,SE,126,0.0,0.0,95,0.00,,---,0.00,VWS V13.01,2013-05-22 07:47:00,
2013-05-22 03:50:00,68.8,67.3,29.77,SE,126,0.0,0.0,95,0.00,,---,0.00,VWS V13.01,2013-05-22 07:50:00,
2013-05-22 03:52:00,68.8,67.3,29.77,SE,126,0.0,0.0,95,0.00,,---,0.00,VWS V13.01,2013-05-22 07:52:00,
2013-05-22 03:57:00,68.8,67.3,29.77,SE,126,0.0,0.0,95,0.00,,---,0.00,VWS V13.01,2013-05-22 07:57:00,
2013-05-22 04:00:00,68.8,67.6,29.77,SE,126,0.0,0.0,96,0.00,,---,0.00,VWS V13.01,2013-05-22 08:00:00,
2013-05-22 04:02:00,68.8,67.3,29.77,SE,126,0.0,0.0,95,0.00,,---,0.00,VWS V13.01,2013-05-22 08:02:00,
2013-05-22 04:07:00,68.8,67.6,29.77,SE,126,0.0,0.0,96,0.00,,---,0.00,VWS V13.01,2013-05-22 08:07:00,
2013-05-22 04:10:00,68.7,67.5,29.77,SE,126,0.0,0.0,96,0.00,,---,0.00,VWS V13.01,2013-05-22 08:10:00,
2013-05-22 04:12:00,68.8,67.6,29.77,SE,126,0.0,0.0,96,0.00,,---,0.00,VWS V13.01,2013-05-22 08:12:00,
2013-05-22 04:17:00,68.7,67.5,29.77,SE,126,0.0,0.0,96,0.00,,---,0.00,VWS V13.01,2013-05-22 08:17:00,
2013-05-22 04:20:00,68.7,67.5,29.77,SE,126,0.0,0.0,96,0.00,,---,0.00,VWS V13.01,2013-05-22 08:20:00,
2013-05-22 04:22:00,68.7,67.5,29.77,SE,126,0.0,0.0,96,0.00,,---,0.00,VWS V13.01,2013-05-22 08:22:00,
2013-05-22 04:27:00,68.7,67.5,29.77,SE,126,0.0,0.0,96,0.00,,---,0.00,VWS V13.01,2013-05-22 08:27:00,
2013-05-22 04:30:00,68.7,67.5,29.77,SE,126,0.0,0.0,96,0.00,,---,0.00,VWS V13.01,2013-05-22 08:30:00,
2013-05-22 04:32:00,68.7,67.5,29.77,SE,126,0.0,0.0,96,0.00,,---,0.00,VWS V13.01,2013-05-22 08:32:00,
2013-05-22 04:37:00,68.7,67.5,29.77,SE,126,0.0,0.0,96,0.00,,---,0.00,VWS V13.01,2013-05-22 08:37:00,
2013-05-22 04:40:00,68.7,67.5,29.77,SE,126,0.0,0.0,96,0.00,,---,0.00,VWS V13.01,2013-05-22 08:40:00,
2013-05-22 04:42:00,68.7,67.5,29.77,SE,126,0.0,0.0,96,0.00,,---,0.00,VWS V13.01,2013-05-22 08:42:00,
2013-05-22 04:47:00,68.6,67.4,29.77,SE,126,0.0,0.0,96,0.00,,---,0.00,VWS V13.01,2013-05-22 08:47:00,
2013-05-22 04:50:00,68.5,67.3,29.77,SE,126,0.0,0.0,96,0.00,,---,0.00,VWS V13.01,2013-05-22 08:50:00,
2013-05-22 04:52:00,68.6,67.4,29.77,SE,126,0.0,0.0,96,0.00,,---,0.00,VWS V13.01,2013-05-22 08:52:00,
2013-05-22 04:57:00,68.5,67.3,29.77,SE,126,0.0,0.0,96,0.00,,---,0.00,VWS V13.01,2013-05-22 08:57:00,
2013-05-22 05:00:00,68.5,67.3,29.77,SE,126,0.0,0.0,96,0.00,,---,0.00,VWS V13.01,2013-05-22 09:00:00,
2013-05-22 05:02:00,68.5,67.3,29.77,SE,126,0.0,0.0,96,0.00,,---,0.00,VWS V13.01,2013-05-22 09:02:00,
2013-05-22 05:07:00,68.4,67.2,29.78,SE,126,0.0,0.0,96,0.00,,---,0.00,VWS V13.01,2013-05-22 09:07:00,
2013-05-22 05:10:00,68.3,67.1,29.77,SE,126,0.0,0.0,96,0.00,,---,0.00,VWS V13.01,2013-05-22 09:10:00,
2013-05-22 05:12:00,68.4,67.2,29.77,SE,126,0.0,0.0,96,0.00,,---,0.00,VWS V13.01,2013-05-22 09:12:00,
2013-05-22 05:17:00,68.3,67.1,29.77,SE,126,0.0,0.0,96,0.00,,---,0.00,VWS V13.01,2013-05-22 09:17:00,
2013-05-22 05:20:00,68.3,67.1,29.77,SE,126,0.0,0.0,96,0.00,,---,0.00,VWS V13.01,2013-05-22 09:20:00,
2013-05-22 05:22:00,68.3,67.1,29.78,SE,126,0.0,0.0,96,0.00,,---,0.00,VWS V13.01,2013-05-22 09:22:00,
2013-05-22 05:27:00,68.4,67.2,29.77,SE,126,0.0,0.0,96,0.00,,---,0.00,VWS V13.01,2013-05-22 09:27:00,
2013-05-22 05:30:00,68.4,67.2,29.78,SE,126,0.0,0.0,96,0.00,,---,0.00,VWS V13.01,2013-05-22 09:30:00,
2013-05-22 05:32:00,68.4,67.2,29.78,SE,126,0.0,0.0,96,0.00,,---,0.00,VWS V13.01,2013-05-22 09:32:00,
2013-05-22 05:37:00,68.4,67.2,29.78,SE,126,0.0,0.0,96,0.00,,---,0.00,VWS V13.01,2013-05-22 09:37:00,
2013-05-22 05:40:00,68.4,67.2,29.78,SE,126,0.0,0.0,96,0.00,,---,0.00,VWS V13.01,2013-05-22 09:40:00,
2013-05-22 05:42:00,68.4,67.2,29.78,SE,126,0.0,0.0,96,0.00,,---,0.00,VWS V13.01,2013-05-22 09:42:00,
2013-05-22 05:47:00,68.4,67.2,29.78,SE,126,0.0,0.0,96,0.00,,---,0.00,VWS V13.01,2013-05-22 09:47:00,
2013-05-22 05:50:00,68.2,67.0,29.78,SE,126,0.0,0.0,96,0.00,,---,0.00,VWS V13.01,2013-05-22 09:50:00,
2013-05-22 05:52:00,68.3,67.1,29.78,SE,126,0.0,0.0,96,0.00,,---,0.00,VWS V13.01,2013-05-22 09:52:00,
2013-05-22 05:57:00,68.2,67.0,29.78,SE,126,0.0,0.0,96,0.00,,---,0.00,VWS V13.01,2013-05-22 09:57:00,
2013-05-22 06:00:00,68.0,66.8,29.78,SE,126,0.0,0.0,96,0.00,,---,0.00,VWS V13.01,2013-05-22 10:00:00,
2013-05-22 06:02:00,68.1,66.9,29.78,SE,126,0.0,0.0,96,0.00,,---,0.00,VWS V13.01,2013-05-22 10:02:00,
2013-05-22 06:07:00,68.0,66.8,29.78,SE,126,0.0,0.0,96,0.00,,---,0.00,VWS V13.01,2013-05-22 10:07:00,
2013-05-22 06:10:00,67.9,66.7,29.78,SE,126,0.0,0.0,96,0.00,,---,0.00,VWS V13.01,2013-05-22 10:10:00,
2013-05-22 06:12:00,67.9,66.7,29.78,SE,126,0.0,0.0,96,0.00,,---,0.00,VWS V13.01,2013-05-22 10:12:00,
2013-05-22 06:17:00,67.8,66.6,29.78,SE,126,0.0,0.0,96,0.00,,---,0.00,VWS V13.01,2013-05-22 10:17:00,
2013-05-22 06:20:00,67.8,66.6,29.79,SE,126,0.0,0.0,96,0.00,,---,0.00,VWS V13.01,2013-05-22 10:20:00,
2013-05-22 06:22:00,67.9,66.7,29.79,SE,126,0.0,0.0,96,0.00,,---,0.00,VWS V13.01,2013-05-22 10:22:00,
2013-05-22 06:27:00,67.8,66.6,29.79,SE,126,0.0,0.0,96,0.00,,---,0.00,VWS V13.01,2013-05-22 10:27:00,
2013-05-22 06:30:00,67.9,66.7,29.79,SE,126,0.0,0.0,96,0.00,,---,0.00,VWS V13.01,2013-05-22 10:30:00,
2013-05-22 06:32:00,67.9,66.7,29.79,SE,126,0.0,0.0,96,0.00,,---,0.00,VWS V13.01,2013-05-22 10:32:00,
2013-05-22 06:37:00,67.9,66.7,29.79,SE,126,0.0,0.0,96,0.00,,---,0.00,VWS V13.01,2013-05-22 10:37:00,
2013-05-22 06:40:00,68.0,66.8,29.80,SE,126,0.0,0.0,96,0.00,,---,0.00,VWS V13.01,2013-05-22 10:40:00,
2013-05-22 06:42:00,68.0,66.8,29.80,SE,126,0.0,0.0,96,0.00,,---,0.00,VWS V13.01,2013-05-22 10:42:00,
2013-05-22 06:47:00,68.0,66.8,29.80,SE,126,0.0,0.0,96,0.00,,---,0.00,VWS V13.01,2013-05-22 10:47:00,
2013-05-22 06:50:00,68.0,66.8,29.80,SE,126,0.0,0.0,96,0.00,,---,0.00,VWS V13.01,2013-05-22 10:50:00,
2013-05-22 06:53:00,68.0,66.8,29.80,SE,126,0.0,0.0,96,0.00,,---,0.00,VWS V13.01,2013-05-22 10:53:00,
2013-05-22 06:58:00,68.0,66.8,29.80,SE,126,0.0,0.0,96,0.00,,---,0.00,VWS V13.01,2013-05-22 10:58:00,
2013-05-22 07:00:00,68.1,66.9,29.79,SE,126,0.0,0.0,96,0.00,,---,0.00,VWS V13.01,2013-05-22 11:00:00,
2013-05-22 07:03:00,68.1,66.9,29.79,SE,126,0.0,0.0,96,0.00,,---,0.00,VWS V13.01,2013-05-22 11:03:00,
2013-05-22 07:08:00,68.1,66.9,29.79,SE,126,0.0,0.0,96,0.00,,---,0.00,VWS V13.01,2013-05-22 11:08:00,
2013-05-22 07:10:00,68.3,67.1,29.80,SE,126,0.0,0.0,96,0.00,,---,0.00,VWS V13.01,2013-05-22 11:10:00,
2013-05-22 07:13:00,68.2,67.0,29.80,SE,126,0.0,0.0,96,0.00,,---,0.00,VWS V13.01,2013-05-22 11:13:00,
2013-05-22 07:18:00,68.3,67.4,29.80,SE,126,0.0,0.0,97,0.00,,---,0.00,VWS V13.01,2013-05-22 11:18:00,
2013-05-22 07:20:00,68.5,67.6,29.80,SE,126,0.0,0.0,97,0.00,,---,0.00,VWS V13.01,2013-05-22 11:20:00,
2013-05-22 07:23:00,68.5,67.6,29.80,SE,126,0.0,0.0,97,0.00,,---,0.00,VWS V13.01,2013-05-22 11:23:00,
2013-05-22 07:28:00,68.5,67.6,29.80,SE,126,0.0,0.0,97,0.00,,---,0.00,VWS V13.01,2013-05-22 11:28:00,
2013-05-22 07:30:00,68.7,67.5,29.80,SE,126,0.0,0.0,96,0.00,,---,0.00,VWS V13.01,2013-05-22 11:30:00,
2013-05-22 07:33:00,68.6,67.7,29.80,SE,126,0.0,0.0,97,0.00,,---,0.00,VWS V13.01,2013-05-22 11:33:00,
2013-05-22 07:38:00,68.8,67.6,29.80,SE,126,0.0,0.0,96,0.00,,---,0.00,VWS V13.01,2013-05-22 11:38:00,
2013-05-22 07:40:00,68.9,67.7,29.80,SE,126,0.0,0.0,96,0.00,,---,0.00,VWS V13.01,2013-05-22 11:40:00,
2013-05-22 07:43:00,68.8,67.6,29.80,SE,126,0.0,0.0,96,0.00,,---,0.00,VWS V13.01,2013-05-22 11:43:00,
2013-05-22 07:48:00,68.9,67.7,29.80,SE,126,0.0,0.0,96,0.00,,---,0.00,VWS V13.01,2013-05-22 11:48:00,
2013-05-22 07:50:00,69.1,68.2,29.80,SE,126,0.0,0.0,97,0.00,,---,0.00,VWS V13.01,2013-05-22 11:50:00,
2013-05-22 07:53:00,69.1,68.2,29.80,SE,126,0.0,0.0,97,0.00,,---,0.00,VWS V13.01,2013-05-22 11:53:00,
2013-05-22 07:58:00,69.2,68.3,29.80,SE,126,0.0,0.0,97,0.00,,---,0.00,VWS V13.01,2013-05-22 11:58:00,
2013-05-22 08:00:00,69.5,68.6,29.80,SE,126,0.0,0.0,97,0.00,,---,0.00,VWS V13.01,2013-05-22 12:00:00,
2013-05-22 08:03:00,69.4,68.5,29.80,SE,126,0.0,0.0,97,0.00,,---,0.00,VWS V13.01,2013-05-22 12:03:00,
2013-05-22 08:08:00,69.7,68.8,29.80,SE,126,0.0,0.0,97,0.00,,---,0.00,VWS V13.01,2013-05-22 12:08:00,
2013-05-22 08:10:00,70.1,69.2,29.81,SE,126,0.0,0.0,97,0.00,,---,0.00,VWS V13.01,2013-05-22 12:10:00,
2013-05-22 08:13:00,69.9,69.0,29.80,SE,126,0.0,0.0,97,0.00,,---,0.00,VWS V13.01,2013-05-22 12:13:00,
2013-05-22 08:18:00,70.3,69.4,29.81,SE,126,0.0,0.0,97,0.00,,---,0.00,VWS V13.01,2013-05-22 12:18:00,
2013-05-22 08:20:00,70.4,69.5,29.81,SE,126,0.0,0.0,97,0.00,,---,0.00,VWS V13.01,2013-05-22 12:20:00,
2013-05-22 08:23:00,70.3,69.4,29.81,SE,126,0.0,0.0,97,0.00,,---,0.00,VWS V13.01,2013-05-22 12:23:00,
2013-05-22 08:28:00,70.6,69.7,29.81,SE,126,0.0,0.0,97,0.00,,---,0.00,VWS V13.01,2013-05-22 12:28:00,
2013-05-22 08:30:00,70.7,69.8,29.81,SE,126,0.0,0.0,97,0.00,,---,0.00,VWS V13.01,2013-05-22 12:30:00,
2013-05-22 08:33:00,70.8,69.9,29.81,SE,126,0.0,0.0,97,0.00,,---,0.00,VWS V13.01,2013-05-22 12:33:00,
2013-05-22 08:38:00,70.7,69.8,29.81,SE,126,0.0,0.0,97,0.00,,---,0.00,VWS V13.01,2013-05-22 12:38:00,
2013-05-22 08:40:00,70.9,70.0,29.81,SE,126,0.0,0.0,97,0.00,,---,0.00,VWS V13.01,2013-05-22 12:40:00,
2013-05-22 08:43:00,70.9,70.0,29.81,SE,126,0.0,0.0,97,0.00,,---,0.00,VWS V13.01,2013-05-22 12:43:00,
2013-05-22 08:48:00,71.0,70.1,29.81,SE,126,0.0,0.0,97,0.00,,---,0.00,VWS V13.01,2013-05-22 12:48:00,
2013-05-22 08:50:00,71.2,70.3,29.81,SE,126,0.0,1.0,97,0.00,,---,0.00,VWS V13.01,2013-05-22 12:50:00,
2013-05-22 08:53:00,71.1,70.2,29.81,SE,126,0.0,0.0,97,0.00,,---,0.00,VWS V13.01,2013-05-22 12:53:00,
2013-05-22 08:58:00,71.3,70.4,29.81,SE,126,0.0,0.0,97,0.00,,---,0.00,VWS V13.01,2013-05-22 12:58:00,
2013-05-22 09:00:00,71.8,70.9,29.81,SE,126,0.0,0.0,97,0.00,,---,0.00,VWS V13.01,2013-05-22 13:00:00,
2013-05-22 09:03:00,71.6,70.7,29.81,SE,126,0.0,0.0,97,0.00,,---,0.00,VWS V13.01,2013-05-22 13:03:00,
2013-05-22 09:08:00,72.0,71.1,29.81,SE,126,0.0,0.0,97,0.00,,---,0.00,VWS V13.01,2013-05-22 13:08:00,
2013-05-22 09:10:00,72.5,71.6,29.82,SE,126,0.0,0.0,97,0.00,,---,0.00,VWS V13.01,2013-05-22 13:10:00,
2013-05-22 09:13:00,72.4,71.5,29.82,SE,126,0.0,0.0,97,0.00,,---,0.00,VWS V13.01,2013-05-22 13:13:00,
2013-05-22 09:18:00,72.7,71.8,29.82,SE,126,0.0,0.0,97,0.00,,---,0.00,VWS V13.01,2013-05-22 13:18:00,
2013-05-22 09:20:00,73.2,72.3,29.82,SE,126,0.0,0.0,97,0.00,,---,0.00,VWS V13.01,2013-05-22 13:20:00,
2013-05-22 09:23:00,73.1,72.2,29.82,SE,126,0.0,0.0,97,0.00,,---,0.00,VWS V13.01,2013-05-22 13:23:00,
2013-05-22 09:28:00,73.1,72.2,29.82,SE,126,0.0,0.0,97,0.00,,---,0.00,VWS V13.01,2013-05-22 13:28:00,
2013-05-22 09:30:00,73.6,72.4,29.82,SE,133,0.0,0.0,96,0.00,,---,0.00,VWS V13.01,2013-05-22 13:30:00,
2013-05-22 09:33:00,73.4,72.2,29.82,SE,126,0.0,0.0,96,0.00,,---,0.00,VWS V13.01,2013-05-22 13:33:00,
2013-05-22 09:38:00,73.9,73.0,29.82,SE,133,0.0,0.0,97,0.00,,---,0.00,VWS V13.01,2013-05-22 13:38:00,
2013-05-22 09:40:00,74.3,73.1,29.82,SSE,147,0.0,0.0,96,0.00,,---,0.00,VWS V13.01,2013-05-22 13:40:00,
2013-05-22 09:43:00,74.2,73.0,29.82,SSE,147,0.0,0.0,96,0.00,,---,0.00,VWS V13.01,2013-05-22 13:43:00,
2013-05-22 09:48:00,74.4,73.2,29.82,SSE,153,0.0,0.0,96,0.00,,---,0.00,VWS V13.01,2013-05-22 13:48:00,
2013-05-22 09:50:00,74.5,73.3,29.82,South,191,0.0,4.0,96,0.00,,---,0.00,VWS V13.01,2013-05-22 13:50:00,
2013-05-22 09:53:00,74.5,73.3,29.82,SSE,168,0.0,1.0,96,0.00,,---,0.00,VWS V13.01,2013-05-22 13:53:00,
2013-05-22 09:58:00,74.6,73.4,29.82,South,190,0.0,0.0,96,0.00,,---,0.00,VWS V13.01,2013-05-22 13:58:00,
2013-05-22 10:00:00,75.2,74.0,29.83,SSE,164,0.0,3.0,96,0.00,,---,0.00,VWS V13.01,2013-05-22 14:00:00,
2013-05-22 10:03:00,74.9,73.7,29.82,SSE,164,0.0,3.0,96,0.00,,---,0.00,VWS V13.01,2013-05-22 14:03:00,
2013-05-22 10:08:00,75.3,74.1,29.83,SSE,164,0.0,1.0,96,0.00,,---,0.00,VWS V13.01,2013-05-22 14:08:00,
2013-05-22 10:10:00,75.4,74.2,29.83,SSE,164,0.0,1.0,96,0.00,,---,0.00,VWS V13.01,2013-05-22 14:10:00,
2013-05-22 10:13:00,75.3,74.1,29.83,SSE,164,0.0,1.0,96,0.00,,---,0.00,VWS V13.01,2013-05-22 14:13:00,
2013-05-22 10:18:00,75.6,74.4,29.83,SSE,164,0.0,0.0,96,0.00,,---,0.00,VWS V13.01,2013-05-22 14:18:00,
2013-05-22 10:20:00,75.9,74.4,29.83,SSE,163,0.0,0.0,95,0.00,,---,0.00,VWS V13.01,2013-05-22 14:20:00,
2013-05-22 10:23:00,75.8,74.3,29.83,SSE,163,0.0,0.0,95,0.00,,---,0.00,VWS V13.01,2013-05-22 14:23:00,
2013-05-22 10:28:00,76.1,74.6,29.83,SSE,163,0.0,1.0,95,0.00,,---,0.00,VWS V13.01,2013-05-22 14:28:00,
2013-05-22 10:30:00,76.6,75.1,29.83,SSE,163,0.0,1.0,95,0.00,,---,0.00,VWS V13.01,2013-05-22 14:30:00,
2013-05-22 10:33:00,76.5,75.0,29.83,SSE,163,0.0,1.0,95,0.00,,---,0.00,VWS V13.01,2013-05-22 14:33:00,
2013-05-22 10:38:00,76.7,74.8,29.83,SSE,163,0.0,0.0,94,0.00,,---,0.00,VWS V13.01,2013-05-22 14:38:00,
2013-05-22 10:40:00,77.2,75.0,29.83,SSE,163,0.0,0.0,93,0.00,,---,0.00,VWS V13.01,2013-05-22 14:40:00,
2013-05-22 10:43:00,76.9,74.7,29.83,SSE,163,0.0,0.0,93,0.00,,---,0.00,VWS V13.01,2013-05-22 14:43:00,
2013-05-22 10:48:00,77.4,74.9,29.83,SSE,163,0.0,1.0,92,0.00,,---,0.00,VWS V13.01,2013-05-22 14:48:00,
2013-05-22 10:50:00,77.4,74.6,29.83,SSE,164,0.0,1.0,91,0.00,,---,0.00,VWS V13.01,2013-05-22 14:50:00,
2013-05-22 10:53:00,77.4,74.6,29.82,SSE,164,0.0,1.0,91,0.00,,---,0.00,VWS V13.01,2013-05-22 14:53:00,
2013-05-22 10:58:00,77.7,74.9,29.83,SSE,164,0.0,0.0,91,0.00,,---,0.00,VWS V13.01,2013-05-22 14:58:00,
2013-05-22 11:00:00,77.8,74.6,29.82,SSE,168,0.0,5.0,90,0.00,,---,0.00,VWS V13.01,2013-05-22 15:00:00,
2013-05-22 11:03:00,77.8,74.6,29.83,SSE,165,0.0,1.0,90,0.00,,---,0.00,VWS V13.01,2013-05-22 15:03:00,
2013-05-22 11:08:00,78.0,74.8,29.82,SSE,168,0.0,0.0,90,0.00,,---,0.00,VWS V13.01,2013-05-22 15:08:00,
2013-05-22 11:10:00,79.2,76.0,29.82,SSE,167,0.0,0.0,90,0.00,,---,0.00,VWS V13.01,2013-05-22 15:10:00,
2013-05-22 11:13:00,78.8,75.6,29.82,SSE,167,0.0,0.0,90,0.00,,---,0.00,VWS V13.01,2013-05-22 15:13:00,
2013-05-22 11:18:00,79.6,76.1,29.83,SSE,167,0.0,0.0,89,0.00,,---,0.00,VWS V13.01,2013-05-22 15:18:00,
2013-05-22 11:20:00,80.0,75.8,29.82,South,175,0.0,1.0,87,0.00,,---,0.00,VWS V13.01,2013-05-22 15:20:00,
2013-05-22 11:23:00,79.8,75.6,29.82,South,175,0.0,1.0,87,0.00,,---,0.00,VWS V13.01,2013-05-22 15:23:00,
2013-05-22 11:28:00,80.4,75.8,29.82,South,173,0.0,0.0,86,0.00,,---,0.00,VWS V13.01,2013-05-22 15:28:00,
2013-05-22 11:30:00,81.2,76.3,29.82,SSE,160,0.0,1.0,85,0.00,,---,0.00,VWS V13.01,2013-05-22 15:30:00,
2013-05-22 11:33:00,81.0,76.4,29.82,SSE,160,0.0,1.0,86,0.00,,---,0.00,VWS V13.01,2013-05-22 15:33:00,
2013-05-22 11:38:00,81.3,76.4,29.82,SSE,160,0.0,0.0,85,0.00,,---,0.00,VWS V13.01,2013-05-22 15:38:00,
2013-05-22 11:40:00,80.9,75.3,29.82,South,175,0.0,1.0,83,0.00,,---,0.00,VWS V13.01,2013-05-22 15:40:00,
2013-05-22 11:43:00,81.2,76.3,29.82,SSE,165,0.0,1.0,85,0.00,,---,0.00,VWS V13.01,2013-05-22 15:43:00,
2013-05-22 11:48:00,80.9,75.6,29.82,South,175,0.0,0.0,84,0.00,,---,0.00,VWS V13.01,2013-05-22 15:48:00,
2013-05-22 11:50:00,81.1,75.1,29.82,South,175,0.0,1.0,82,0.00,,---,0.00,VWS V13.01,2013-05-22 15:50:00,
2013-05-22 11:53:00,81.2,75.9,29.82,South,175,0.0,1.0,84,0.00,,---,0.00,VWS V13.01,2013-05-22 15:53:00,
2013-05-22 11:58:00,80.6,74.2,29.82,South,175,0.0,0.0,81,0.00,,---,0.00,VWS V13.01,2013-05-22 15:58:00,
2013-05-22 12:00:00,80.7,74.3,29.82,South,175,0.0,0.0,81,0.00,,---,0.00,VWS V13.01,2013-05-22 16:00:00,
2013-05-22 12:04:00,80.7,75.1,29.82,South,175,0.0,0.0,83,0.00,,---,0.00,VWS V13.01,2013-05-22 16:04:00,
2013-05-22 12:09:00,80.5,74.5,29.82,South,175,0.0,0.0,82,0.00,,---,0.00,VWS V13.01,2013-05-22 16:09:00,
2013-05-22 12:10:00,80.3,74.3,29.82,South,175,0.0,0.0,82,0.00,,---,0.00,VWS V13.01,2013-05-22 16:10:00,
2013-05-22 12:14:00,80.4,74.4,29.82,South,175,0.0,0.0,82,0.00,,---,0.00,VWS V13.01,2013-05-22 16:14:00,
2013-05-22 12:19:00,80.2,74.2,29.82,South,175,0.0,0.0,82,0.00,,---,0.00,VWS V13.01,2013-05-22 16:19:00,
2013-05-22 12:20:00,80.3,74.7,29.82,South,175,0.0,0.0,83,0.00,,---,0.00,VWS V13.01,2013-05-22 16:20:00,
2013-05-22 12:24:00,80.3,75.0,29.82,South,175,0.0,0.0,84,0.00,,---,0.00,VWS V13.01,2013-05-22 16:24:00,
2013-05-22 12:29:00,80.6,74.2,29.82,South,175,0.0,0.0,81,0.00,,---,0.00,VWS V13.01,2013-05-22 16:29:00,
2013-05-22 12:30:00,81.5,76.9,29.82,South,178,0.0,1.0,86,0.00,,---,0.00,VWS V13.01,2013-05-22 16:30:00,
2013-05-22 12:34:00,81.2,76.3,29.81,South,178,0.0,1.0,85,0.00,,---,0.00,VWS V13.01,2013-05-22 16:34:00,
2013-05-22 12:39:00,82.1,77.2,29.81,South,178,0.0,1.0,85,0.00,,---,0.00,VWS V13.01,2013-05-22 16:39:00,
2013-05-22 12:40:00,82.8,76.4,29.81,South,180,0.0,1.0,81,0.00,,---,0.00,VWS V13.01,2013-05-22 16:40:00,
2013-05-22 12:44:00,82.6,75.4,29.81,South,181,0.0,1.0,79,0.00,,---,0.00,VWS V13.01,2013-05-22 16:44:00,
2013-05-22 12:49:00,83.0,75.1,29.81,South,182,0.0,0.0,77,0.00,,---,0.00,VWS V13.01,2013-05-22 16:49:00,
2013-05-22 12:50:00,83.1,76.7,29.80,South,182,0.0,0.0,81,0.00,,---,0.00,VWS V13.01,2013-05-22 16:50:00,
2013-05-22 12:54:00,83.0,75.4,29.81,South,182,0.0,0.0,78,0.00,,---,0.00,VWS V13.01,2013-05-22 16:54:00,
2013-05-22 12:59:00,83.3,75.7,29.80,South,182,0.0,1.0,78,0.00,,---,0.00,VWS V13.01,2013-05-22 16:59:00,
2013-05-22 13:00:00,83.4,75.0,29.80,South,184,0.0,1.0,76,0.00,,---,0.00,VWS V13.01,2013-05-22 17:00:00,
2013-05-22 13:04:00,83.4,76.2,29.80,South,184,0.0,1.0,79,0.00,,---,0.00,VWS V13.01,2013-05-22 17:04:00,
2013-05-22 13:09:00,83.2,74.1,29.80,South,184,0.0,0.0,74,0.00,,---,0.00,VWS V13.01,2013-05-22 17:09:00,
2013-05-22 13:10:00,82.8,74.5,29.80,South,184,0.0,1.0,76,0.00,,---,0.00,VWS V13.01,2013-05-22 17:10:00,
2013-05-22 13:14:00,83.0,74.3,29.80,South,184,0.0,1.0,75,0.00,,---,0.00,VWS V13.01,2013-05-22 17:14:00,
2013-05-22 13:19:00,82.4,75.2,29.80,South,184,0.0,0.0,79,0.00,,---,0.00,VWS V13.01,2013-05-22 17:19:00,
2013-05-22 13:20:00,82.2,75.4,29.79,West,269,0.0,0.0,80,0.00,,---,0.00,VWS V13.01,2013-05-22 17:20:00,
2013-05-22 13:24:00,82.3,75.5,29.79,West,269,0.0,0.0,80,0.00,,---,0.00,VWS V13.01,2013-05-22 17:24:00,
2013-05-22 13:29:00,82.1,75.3,29.79,WSW,256,0.0,1.0,80,0.00,,---,0.00,VWS V13.01,2013-05-22 17:29:00,
2013-05-22 13:30:00,81.8,75.0,29.79,WSW,250,0.0,1.0,80,0.00,,---,0.00,VWS V13.01,2013-05-22 17:30:00,
2013-05-22 13:34:00,81.8,75.0,29.79,WSW,250,0.0,1.0,80,0.00,,---,0.00,VWS V13.01,2013-05-22 17:34:00,
2013-05-22 13:39:00,81.9,75.1,29.79,WSW,250,0.0,0.0,80,0.00,,---,0.00,VWS V13.01,2013-05-22 17:39:00,
2013-05-22 13:40:00,82.2,75.8,29.78,WSW,246,0.0,1.0,81,0.00,,---,0.00,VWS V13.01,2013-05-22 17:40:00,
2013-05-22 13:44:00,82.1,76.1,29.79,WSW,246,0.0,1.0,82,0.00,,---,0.00,VWS V13.01,2013-05-22 17:44:00,
2013-05-22 13:49:00,82.5,74.9,29.79,WSW,242,0.0,1.0,78,0.00,,---,0.00,VWS V13.01,2013-05-22 17:49:00,
2013-05-22 13:50:00,83.7,76.5,29.78,SW,223,0.0,1.0,79,0.00,,---,0.00,VWS V13.01,2013-05-22 17:50:00,
2013-05-22 13:54:00,83.3,75.7,29.78,SW,219,0.0,1.0,78,0.00,,---,0.00,VWS V13.01,2013-05-22 17:54:00,
2013-05-22 13:59:00,84.3,77.5,29.78,SW,223,0.0,1.0,80,0.00,,---,0.00,VWS V13.01,2013-05-22 17:59:00,
2013-05-22 14:00:00,85.0,75.8,29.78,SSW,208,0.0,1.0,74,0.00,,---,0.00,VWS V13.01,2013-05-22 18:00:00,
2013-05-22 14:04:00,84.9,75.7,29.78,SSW,208,0.0,1.0,74,0.00,,---,0.00,VWS V13.01,2013-05-22 18:04:00,
2013-05-22 14:09:00,85.1,75.5,29.78,SSW,208,0.0,0.0,73,0.00,,---,0.00,VWS V13.01,2013-05-22 18:09:00,
2013-05-22 14:10:00,85.4,74.5,29.78,SSW,207,0.0,1.0,70,0.00,,---,0.00,VWS V13.01,2013-05-22 18:10:00,
2013-05-22 14:14:00,85.4,75.8,29.78,SSW,206,0.0,1.0,73,0.00,,---,0.00,VWS V13.01,2013-05-22 18:14:00,
2013-05-22 14:19:00,85.8,74.9,29.78,SSW,207,0.0,0.0,70,0.00,,---,0.00,VWS V13.01,2013-05-22 18:19:00,
2013-05-22 14:20:00,86.3,75.4,29.78,SSW,207,0.0,1.0,70,0.00,,---,0.00,VWS V13.01,2013-05-22 18:20:00,
2013-05-22 14:24:00,86.3,74.9,29.78,SSW,207,1.0,1.0,69,0.00,,---,0.00,VWS V13.01,2013-05-22 18:24:00,
2013-05-22 14:29:00,86.6,74.8,29.77,SSW,208,0.0,1.0,68,0.00,,---,0.00,VWS V13.01,2013-05-22 18:29:00,
2013-05-22 14:30:00,86.8,74.5,29.77,SSW,207,0.0,1.0,67,0.00,,---,0.00,VWS V13.01,2013-05-22 18:30:00,
2013-05-22 14:34:00,86.8,74.5,29.77,SSW,208,0.0,1.0,67,0.00,,---,0.00,VWS V13.01,2013-05-22 18:34:00,
2013-05-22 14:39:00,86.9,74.2,29.77,SSW,208,0.0,0.0,66,0.00,,---,0.00,VWS V13.01,2013-05-22 18:39:00,
2013-05-22 14:40:00,86.1,73.9,29.77,SSW,208,0.0,2.0,67,0.00,,---,0.00,VWS V13.01,2013-05-22 18:40:00,
2013-05-22 14:44:00,86.3,73.2,29.77,SSW,208,0.0,2.0,65,0.00,,---,0.00,VWS V13.01,2013-05-22 18:44:00,
2013-05-22 14:49:00,85.8,73.1,29.77,SSW,208,0.0,0.0,66,0.00,,---,0.00,VWS V13.01,2013-05-22 18:49:00,
2013-05-22 14:50:00,85.9,74.6,29.77,SSW,207,0.0,3.0,69,0.00,,---,0.00,VWS V13.01,2013-05-22 18:50:00,
2013-05-22 14:54:00,85.9,74.6,29.77,SSW,208,0.0,3.0,69,0.00,,---,0.00,VWS V13.01,2013-05-22 18:54:00,
2013-05-22 14:59:00,86.1,74.3,29.76,SSW,208,0.0,1.0,68,0.00,,---,0.00,VWS V13.01,2013-05-22 18:59:00,
2013-05-22 15:00:00,86.5,72.9,29.76,SSW,209,0.0,4.0,64,0.00,,---,0.00,VWS V13.01,2013-05-22 19:00:00,
2013-05-22 15:04:00,86.4,72.8,29.76,SSW,209,0.0,4.0,64,0.00,,---,0.00,VWS V13.01,2013-05-22 19:04:00,
2013-05-22 15:09:00,86.6,73.0,29.76,SSW,210,0.0,0.0,64,0.00,,---,0.00,VWS V13.01,2013-05-22 19:09:00,
2013-05-22 15:10:00,85.8,73.1,29.77,NNE,33,1.0,10.0,66,0.00,,---,0.00,VWS V13.01,2013-05-22 19:10:00,
2013-05-22 15:14:00,86.0,73.3,29.77,NE,38,3.0,10.0,66,0.00,,---,0.00,VWS V13.01,2013-05-22 19:14:00,
2013-05-22 15:19:00,84.7,73.4,29.77,NNE,22,5.0,13.0,69,0.00,,---,0.00,VWS V13.01,2013-05-22 19:19:00,
2013-05-22 15:20:00,82.8,73.7,29.77,NNE,26,4.0,13.0,74,0.00,,---,0.00,VWS V13.01,2013-05-22 19:20:00,
2013-05-22 15:24:00,83.0,73.1,29.77,NNE,33,1.0,13.0,72,0.00,,---,0.00,VWS V13.01,2013-05-22 19:24:00,
2013-05-22 15:29:00,80.8,74.1,29.78,NE,46,1.0,13.0,80,0.00,,---,0.00,VWS V13.01,2013-05-22 19:29:00,
2013-05-22 15:30:00,78.7,73.5,29.77,NNE,18,0.0,13.0,84,0.00,,---,0.00,VWS V13.01,2013-05-22 19:30:00,
2013-05-22 15:34:00,79.0,73.8,29.77,North,5,0.0,13.0,84,0.00,,---,0.00,VWS V13.01,2013-05-22 19:34:00,
2013-05-22 15:39:00,77.5,73.0,29.76,NE,48,4.0,10.0,86,0.00,,---,0.00,VWS V13.01,2013-05-22 19:39:00,
2013-05-22 15:40:00,76.6,72.8,29.76,NE,48,0.0,10.0,88,0.00,,---,0.00,VWS V13.01,2013-05-22 19:40:00,
2013-05-22 15:44:00,76.6,72.8,29.76,NNE,30,2.0,10.0,88,0.00,,---,0.00,VWS V13.01,2013-05-22 19:44:00,
2013-05-22 15:49:00,76.7,73.6,29.76,NE,40,0.0,9.0,90,0.00,,---,0.00,VWS V13.01,2013-05-22 19:49:00,
2013-05-22 15:50:00,76.9,74.1,29.75,ENE,64,0.0,9.0,91,0.00,,---,0.00,VWS V13.01,2013-05-22 19:50:00,
2013-05-22 15:54:00,76.9,74.1,29.75,ENE,64,0.0,9.0,91,0.00,,---,0.00,VWS V13.01,2013-05-22 19:54:00,
2013-05-22 16:00:00,77.1,73.9,29.75,NE,45,1.0,7.0,90,0.00,,---,0.00,VWS V13.01,2013-05-22 20:00:00,
2013-05-22 16:10:00,77.7,74.9,29.75,East,90,1.0,10.0,91,0.00,,---,0.00,VWS V13.01,2013-05-22 20:10:00,
2013-05-22 16:20:00,78.4,74.6,29.75,ESE,112,3.0,10.0,88,0.00,,---,0.00,VWS V13.01,2013-05-22 20:20:00,
2013-05-22 16:30:00,78.5,74.3,29.75,ESE,112,1.0,7.0,87,0.00,,---,0.00,VWS V13.01,2013-05-22 20:30:00,
2013-05-22 16:40:00,78.1,74.3,29.75,ESE,112,1.0,7.0,88,0.00,,---,0.00,VWS V13.01,2013-05-22 20:40:00,
2013-05-22 16:50:00,78.5,74.3,29.75,ESE,112,2.0,9.0,87,0.00,,---,0.00,VWS V13.01,2013-05-22 20:50:00,
2013-05-22 17:00:00,78.7,73.5,29.75,ESE,112,2.0,10.0,84,0.00,,---,0.00,VWS V13.01,2013-05-22 21:00:00,
2013-05-22 17:10:00,78.5,73.6,29.75,ESE,112,1.0,6.0,85,0.00,,---,0.00,VWS V13.01,2013-05-22 21:10:00,
2013-05-22 17:20:00,77.9,73.0,29.75,ESE,112,1.0,9.0,85,0.00,,---,0.00,VWS V13.01,2013-05-22 21:20:00,
2013-05-22 17:30:00,77.5,73.3,29.75,ESE,112,0.0,6.0,87,0.00,,---,0.00,VWS V13.01,2013-05-22 21:30:00,
2013-05-22 17:40:00,77.2,73.4,29.75,ENE,68,0.0,4.0,88,0.00,,---,0.00,VWS V13.01,2013-05-22 21:40:00,
2013-05-22 17:50:00,77.0,73.5,29.75,East,90,0.0,2.0,89,0.00,,---,0.00,VWS V13.01,2013-05-22 21:50:00,
2013-05-22 18:00:00,77.0,73.5,29.77,East,90,0.0,0.0,89,0.00,,---,0.00,VWS V13.01,2013-05-22 22:00:00,
2013-05-22 18:10:00,76.9,73.4,29.77,East,90,0.0,0.0,89,0.00,,---,0.00,VWS V13.01,2013-05-22 22:10:00,
2013-05-22 18:20:00,77.0,73.5,29.77,East,90,0.0,0.0,89,0.00,,---,0.00,VWS V13.01,2013-05-22 22:20:00,
2013-05-22 18:30:00,77.2,73.4,29.78,East,90,0.0,1.0,88,0.00,,---,0.00,VWS V13.01,2013-05-22 22:30:00,
2013-05-22 18:40:00,77.4,73.6,29.77,East,90,0.0,0.0,88,0.00,,---,0.00,VWS V13.01,2013-05-22 22:40:00,
2013-05-22 18:50:00,77.6,73.4,29.77,ESE,112,0.0,1.0,87,0.00,,---,0.00,VWS V13.01,2013-05-22 22:50:00,
2013-05-22 19:00:00,77.5,73.3,29.77,SE,135,0.0,2.0,87,0.00,,---,0.00,VWS V13.01,2013-05-22 23:00:00,
2013-05-22 19:10:00,77.4,73.6,29.77,SE,135,0.0,0.0,88,0.00,,---,0.00,VWS V13.01,2013-05-22 23:10:00,
2013-05-22 19:20:00,77.0,72.8,29.77,SE,135,0.0,1.0,87,0.00,,---,0.00,VWS V13.01,2013-05-22 23:20:00,
2013-05-22 19:30:00,76.5,72.3,29.77,SE,135,0.0,0.0,87,0.00,,---,0.00,VWS V13.01,2013-05-22 23:30:00,
2013-05-22 19:40:00,76.1,71.9,29.77,SE,135,0.0,1.0,87,0.00,,---,0.00,VWS V13.01,2013-05-22 23:40:00,
2013-05-22 19:50:00,75.9,72.1,29.78,SE,135,0.0,0.0,88,0.00,,---,0.00,VWS V13.01,2013-05-22 23:50:00,
2013-05-22 20:00:00,75.1,72.0,29.78,SE,135,0.0,0.0,90,0.00,,---,0.00,VWS V13.01,2013-05-23 00:00:00,
2013-05-22 20:10:00,74.7,71.6,29.78,SE,135,0.0,0.0,90,0.00,,---,0.00,VWS V13.01,2013-05-23 00:10:00,
2013-05-22 20:20:00,74.6,71.5,29.78,SE,135,0.0,0.0,90,0.00,,---,0.00,VWS V13.01,2013-05-23 00:20:00,
2013-05-22 20:30:00,74.6,71.5,29.77,SE,135,0.0,0.0,90,0.00,,---,0.00,VWS V13.01,2013-05-23 00:30:00,
2013-05-22 20:40:00,74.6,71.5,29.78,SE,135,0.0,0.0,90,0.00,,---,0.00,VWS V13.01,2013-05-23 00:40:00,
2013-05-22 20:50:00,74.6,71.5,29.78,SE,135,0.0,0.0,90,0.00,,---,0.00,VWS V13.01,2013-05-23 00:50:00,
2013-05-22 21:00:00,74.6,71.5,29.78,SE,135,0.0,0.0,90,0.00,,---,0.00,VWS V13.01,2013-05-23 01:00:00,
2013-05-22 21:10:00,74.6,71.5,29.78,SE,135,0.0,0.0,90,0.00,,---,0.00,VWS V13.01,2013-05-23 01:10:00,
2013-05-22 21:20:00,74.3,71.2,29.78,SE,135,0.0,0.0,90,0.00,,---,0.00,VWS V13.01,2013-05-23 01:20:00,
2013-05-22 21:30:00,74.1,71.3,29.79,SE,135,0.0,0.0,91,0.00,,---,0.00,VWS V13.01,2013-05-23 01:30:00,
2013-05-22 21:40:00,73.8,71.0,29.79,SE,135,0.0,0.0,91,0.00,,---,0.00,VWS V13.01,2013-05-23 01:40:00,
2013-05-22 21:50:00,73.5,70.7,29.79,SE,135,0.0,0.0,91,0.00,,---,0.00,VWS V13.01,2013-05-23 01:50:00,
2013-05-22 22:00:00,72.9,70.4,29.79,SE,135,0.0,0.0,92,0.00,,---,0.00,VWS V13.01,2013-05-23 02:00:00,
2013-05-22 22:10:00,72.6,70.2,29.79,SE,135,0.0,0.0,92,0.00,,---,0.00,VWS V13.01,2013-05-23 02:10:00,
2013-05-22 22:20:00,72.7,70.2,29.79,SE,135,0.0,0.0,92,0.00,,---,0.00,VWS V13.01,2013-05-23 02:20:00,
2013-05-22 22:30:00,72.8,70.7,29.79,SE,135,0.0,0.0,93,0.00,,---,0.00,VWS V13.01,2013-05-23 02:30:00,
2013-05-22 22:40:00,72.8,70.7,29.80,SE,135,0.0,0.0,93,0.00,,---,0.00,VWS V13.01,2013-05-23 02:40:00,
2013-05-22 22:50:00,72.7,70.6,29.80,SE,135,0.0,0.0,93,0.00,,---,0.00,VWS V13.01,2013-05-23 02:50:00,
2013-05-22 23:00:00,72.7,70.6,29.80,SE,135,0.0,0.0,93,0.00,,---,0.00,VWS V13.01,2013-05-23 03:00:00,
2013-05-22 23:10:00,72.7,70.6,29.80,SE,135,0.0,0.0,93,0.00,,---,0.00,VWS V13.01,2013-05-23 03:10:00,
2013-05-22 23:20:00,72.7,70.6,29.80,SE,135,0.0,0.0,93,0.00,,---,0.00,VWS V13.01,2013-05-23 03:20:00,
2013-05-22 23:30:00,72.6,70.5,29.80,SE,135,0.0,0.0,93,0.00,,---,0.00,VWS V13.01,2013-05-23 03:30:00,
2013-05-22 23:40:00,72.5,70.4,29.80,SE,135,0.0,0.0,93,0.00,,---,0.00,VWS V13.01,2013-05-23 03:40:00,
2013-05-22 23:50:00,72.4,70.3,29.80,SE,135,0.0,0.0,93,0.00,,---,0.00,VWS V13.01,2013-05-23 03:50:00,